createdAt,value
2023-05-09T00:00:39.759Z,8.27
2023-05-09T00:05:41.812Z,8.23
2023-05-09T00:10:43.298Z,8.15
2023-05-09T00:15:44.883Z,8.16
2023-05-09T00:20:46.327Z,8.11
2023-05-09T00:25:47.729Z,8.07
2023-05-09T00:30:49.147Z,8.01
2023-05-09T00:35:50.818Z,7.98
2023-05-09T00:40:52.291Z,7.87
2023-05-09T00:45:53.863Z,7.84
2023-05-09T00:50:55.412Z,7.79
2023-05-09T00:55:57.683Z,7.72
2023-05-09T01:01:00.374Z,7.67
2023-05-09T01:06:31.447Z,7.61
2023-05-09T01:11:39.168Z,7.54
2023-05-09T01:17:04.742Z,7.60
2023-05-09T01:22:08.807Z,7.58
2023-05-09T01:27:32.981Z,7.50
2023-05-09T01:32:38.220Z,7.49
2023-05-09T01:37:43.414Z,7.44
2023-05-09T01:42:49.863Z,7.41
2023-05-09T01:47:51.747Z,7.42
2023-05-09T01:52:56.300Z,7.38
2023-05-09T01:57:59.466Z,7.33
2023-05-09T02:03:03.725Z,7.25
2023-05-09T02:08:05.870Z,7.25
2023-05-09T02:13:07.325Z,7.12
2023-05-09T02:18:08.861Z,7.06
2023-05-09T02:23:10.509Z,7.02
2023-05-09T02:28:13.330Z,7.06
2023-05-09T02:33:14.920Z,7.03
2023-05-09T02:38:16.485Z,6.93
2023-05-09T02:43:17.879Z,6.88
2023-05-09T02:48:19.439Z,6.85
2023-05-09T02:53:21.223Z,6.75
2023-05-09T02:58:23.006Z,6.72
2023-05-09T03:03:25.383Z,6.66
2023-05-09T03:08:26.923Z,6.62
2023-05-09T03:13:28.337Z,6.62
2023-05-09T03:18:29.819Z,6.63
2023-05-09T03:23:31.418Z,6.58
2023-05-09T03:28:32.829Z,6.52
2023-05-09T03:33:34.274Z,6.48
2023-05-09T03:38:35.804Z,6.45
2023-05-09T03:43:37.282Z,6.50
2023-05-09T03:48:38.765Z,6.55
2023-05-09T03:53:40.979Z,6.61
2023-05-09T03:58:42.554Z,6.56
2023-05-09T04:03:44.202Z,6.67
2023-05-09T04:08:45.799Z,6.87
2023-05-09T04:13:47.587Z,6.94
2023-05-09T04:18:48.995Z,7.09
2023-05-09T04:23:50.525Z,7.14
2023-05-09T04:28:52.933Z,7.37
2023-05-09T04:33:54.378Z,7.59
2023-05-09T04:38:56.575Z,7.53
2023-05-09T04:43:57.993Z,7.84
2023-05-09T04:48:59.399Z,8.16
2023-05-09T04:54:00.916Z,8.33
2023-05-09T04:59:04.377Z,8.72
2023-05-09T05:04:05.802Z,8.85
2023-05-09T05:09:07.240Z,9.10
2023-05-09T05:14:08.673Z,9.32
2023-05-09T05:19:10.080Z,9.38
2023-05-09T05:24:11.499Z,9.70
2023-05-09T05:29:12.915Z,10.01
2023-05-09T05:34:16.269Z,10.36
2023-05-09T05:39:17.681Z,10.65
2023-05-09T05:44:19.094Z,10.91
2023-05-09T05:49:20.552Z,11.20
2023-05-09T05:54:22.296Z,11.12
2023-05-09T05:59:23.719Z,11.02
2023-05-09T06:04:25.127Z,11.44
2023-05-09T06:09:26.550Z,11.58
2023-05-09T06:14:27.976Z,11.98
2023-05-09T06:19:29.396Z,11.96
2023-05-09T06:24:35.705Z,12.03
2023-05-09T06:29:37.856Z,12.34
2023-05-09T06:34:39.276Z,12.32
2023-05-09T06:39:40.722Z,12.39
2023-05-09T06:44:43.789Z,12.53
2023-05-09T06:49:45.274Z,12.64
2023-05-09T06:54:46.911Z,12.75
2023-05-09T06:59:48.354Z,13.02
2023-05-09T07:04:50.074Z,13.31
2023-05-09T07:09:55.210Z,13.55
2023-05-09T07:15:02.513Z,13.71
2023-05-09T07:20:04.936Z,13.85
2023-05-09T07:25:10.104Z,13.86
2023-05-09T07:30:11.963Z,13.98
2023-05-09T07:35:13.746Z,14.23
2023-05-09T07:40:15.925Z,14.19
2023-05-09T07:45:18.850Z,14.22
2023-05-09T07:50:23.176Z,14.30
2023-05-09T07:55:24.649Z,14.38
2023-05-09T08:00:26.127Z,14.44
2023-05-09T08:05:27.621Z,14.88
2023-05-09T08:10:31.015Z,14.72
2023-05-09T08:15:32.509Z,14.94
2023-05-09T08:20:34.553Z,15.19
2023-05-09T08:25:36.046Z,15.13
2023-05-09T08:30:37.699Z,15.32
2023-05-09T08:35:39.107Z,15.45
2023-05-09T08:40:41.076Z,15.41
2023-05-09T08:45:58.072Z,15.52
2023-05-09T08:51:00.431Z,15.66
2023-05-09T08:56:03.748Z,15.70
2023-05-09T09:01:06.980Z,15.98
2023-05-09T09:06:09.491Z,16.12
2023-05-09T09:11:13.306Z,16.10
2023-05-09T09:16:20.494Z,16.34
2023-05-09T09:21:23.513Z,16.53
2023-05-09T09:26:29.174Z,16.37
2023-05-09T09:31:33.254Z,16.68
2023-05-09T09:36:36.826Z,16.78
2023-05-09T09:41:39.699Z,16.77
2023-05-09T09:46:41.759Z,16.71
2023-05-09T09:51:44.404Z,16.78
2023-05-09T09:56:48.366Z,17.05
2023-05-09T10:02:08.418Z,17.43
2023-05-09T10:07:13.855Z,17.38
2023-05-09T10:12:19.690Z,17.32
2023-05-09T10:17:22.931Z,17.48
2023-05-09T10:22:24.892Z,17.53
2023-05-09T10:27:28.761Z,17.59
2023-05-09T10:32:42.318Z,17.70
2023-05-09T10:37:45.758Z,17.63
2023-05-09T10:42:47.518Z,17.54
2023-05-09T10:47:51.532Z,17.78
2023-05-09T10:53:14.066Z,17.92
2023-05-09T10:58:20.027Z,17.92
2023-05-09T11:03:21.778Z,18.22
2023-05-09T11:08:31.237Z,18.01
2023-05-09T11:13:41.001Z,18.13
2023-05-09T11:18:51.942Z,18.31
2023-05-09T11:23:55.258Z,18.42
2023-05-09T11:28:59.481Z,18.45
2023-05-09T11:34:04.686Z,18.46
2023-05-09T11:39:08.519Z,18.38
2023-05-09T11:44:19.997Z,18.31
2023-05-09T11:49:21.832Z,18.37
2023-05-09T11:54:23.734Z,18.07
2023-05-09T11:59:25.272Z,18.11
2023-05-09T12:04:28.989Z,18.47
2023-05-09T12:09:32.948Z,18.55
2023-05-09T12:14:34.756Z,18.47
2023-05-09T12:19:36.916Z,18.56
2023-05-09T12:24:38.366Z,18.56
2023-05-09T12:29:42.260Z,18.70
2023-05-09T12:34:48.536Z,18.70
2023-05-09T12:40:07.110Z,18.64
2023-05-09T12:45:10.082Z,18.60
2023-05-09T12:50:14.821Z,18.55
2023-05-09T12:55:18.212Z,18.51
2023-05-09T13:00:19.948Z,18.58
2023-05-09T13:05:22.356Z,18.78
2023-05-09T13:10:27.358Z,18.81
2023-05-09T13:15:29.716Z,18.82
2023-05-09T13:20:31.224Z,18.73
2023-05-09T13:25:32.707Z,18.69
2023-05-09T13:30:34.467Z,18.68
2023-05-09T13:35:35.943Z,18.75
2023-05-09T13:40:37.979Z,18.56
2023-05-09T13:45:39.476Z,18.59
2023-05-09T13:50:40.890Z,18.58
2023-05-09T13:55:42.795Z,18.73
2023-05-09T14:00:44.270Z,18.36
2023-05-09T14:05:45.744Z,18.45
2023-05-09T14:10:48.132Z,18.74
2023-05-09T14:15:49.677Z,18.66
2023-05-09T14:20:51.140Z,18.90
2023-05-09T14:25:52.860Z,18.89
2023-05-09T14:30:54.468Z,18.68
2023-05-09T14:35:56.473Z,18.69
2023-05-09T14:40:57.884Z,18.63
2023-05-09T14:45:59.351Z,18.67
2023-05-09T14:51:01.155Z,18.34
2023-05-09T14:56:02.596Z,18.25
2023-05-09T15:01:04.361Z,18.38
2023-05-09T15:06:06.042Z,18.36
2023-05-09T15:11:08.068Z,18.50
2023-05-09T15:16:09.583Z,18.50
2023-05-09T15:21:12.234Z,18.30
2023-05-09T15:26:13.676Z,18.21
2023-05-09T15:31:15.143Z,18.39
2023-05-09T15:36:16.793Z,18.17
2023-05-09T15:41:18.555Z,18.08
2023-05-09T15:46:20.118Z,17.95
2023-05-09T15:51:21.792Z,18.08
2023-05-09T15:56:23.247Z,17.86
2023-05-09T16:01:24.764Z,17.97
2023-05-09T16:06:26.821Z,17.92
2023-05-09T16:11:28.255Z,17.85
2023-05-09T16:16:29.939Z,17.62
2023-05-09T16:21:33.039Z,17.51
2023-05-09T16:26:34.672Z,17.19
2023-05-09T16:31:36.135Z,17.47
2023-05-09T16:36:38.290Z,17.28
2023-05-09T16:41:39.745Z,17.34
2023-05-09T16:46:42.061Z,17.09
2023-05-09T16:51:44.109Z,17.06
2023-05-09T16:56:45.674Z,16.94
2023-05-09T17:01:47.588Z,16.83
2023-05-09T17:06:51.278Z,16.73
2023-05-09T17:11:52.689Z,16.89
2023-05-09T17:16:54.282Z,16.67
2023-05-09T17:21:58.461Z,16.56
2023-05-09T17:27:00.338Z,16.59
2023-05-09T17:32:02.121Z,16.58
2023-05-09T17:37:05.638Z,16.49
2023-05-09T17:42:07.750Z,16.37
2023-05-09T17:47:09.417Z,16.36
2023-05-09T17:52:10.850Z,16.29
2023-05-09T17:57:12.257Z,16.13
2023-05-09T18:02:13.752Z,16.00
2023-05-09T18:07:15.652Z,15.87
2023-05-09T18:12:17.068Z,15.78
2023-05-09T18:17:18.585Z,15.78
2023-05-09T18:22:21.622Z,15.63
2023-05-09T18:27:23.163Z,15.58
2023-05-09T18:32:24.895Z,15.47
2023-05-09T18:37:27.147Z,15.29
2023-05-09T18:42:28.744Z,15.23
2023-05-09T18:47:30.238Z,15.10
2023-05-09T18:52:32.197Z,14.95
2023-05-09T18:57:33.882Z,14.90
2023-05-09T19:02:35.375Z,14.80
2023-05-09T19:07:38.086Z,14.83
2023-05-09T19:12:39.590Z,14.78
2023-05-09T19:17:41.042Z,14.59
2023-05-09T19:28:05.195Z,14.31
2023-05-09T19:33:06.741Z,14.22
2023-05-09T19:38:08.902Z,14.21
2023-05-09T19:43:10.403Z,14.09
2023-05-09T19:48:15.314Z,13.98
2023-05-09T19:53:16.740Z,13.73
2023-05-09T19:58:18.172Z,13.72
2023-05-09T20:03:19.800Z,13.67
2023-05-09T20:13:41.940Z,13.56
2023-05-09T20:18:44.026Z,13.41
2023-05-09T20:23:46.003Z,13.31
2023-05-09T20:28:47.593Z,13.31
2023-05-09T20:33:49.014Z,13.20
2023-05-09T20:38:50.884Z,13.11
2023-05-09T20:43:52.387Z,13.12
2023-05-09T20:48:53.813Z,13.14
2023-05-09T20:53:55.288Z,13.08
2023-05-09T20:58:56.802Z,13.00
2023-05-09T21:03:59.329Z,13.06
2023-05-09T21:09:00.935Z,12.98
2023-05-09T21:14:02.422Z,13.02
2023-05-09T21:19:05.226Z,12.94
2023-05-09T21:24:09.226Z,12.75
2023-05-09T21:29:10.726Z,12.67
2023-05-09T21:34:12.253Z,12.63
2023-05-09T21:39:13.652Z,12.63
2023-05-09T21:44:15.123Z,12.60
2023-05-09T21:49:16.962Z,12.50
2023-05-09T21:54:18.442Z,12.29
2023-05-09T21:59:22.150Z,12.27
2023-05-09T22:04:23.553Z,12.29
2023-05-09T22:09:25.132Z,12.27
2023-05-09T22:14:27.047Z,12.12
2023-05-09T22:19:28.615Z,12.08
2023-05-09T22:24:30.017Z,12.12
2023-05-09T22:29:34.096Z,12.05
2023-05-09T22:34:35.920Z,12.00
2023-05-09T22:39:37.312Z,11.99
2023-05-09T22:44:39.374Z,11.95
2023-05-09T22:49:40.798Z,11.88
2023-05-09T22:54:42.248Z,11.91
2023-05-09T22:59:43.988Z,11.89
2023-05-09T23:04:45.454Z,11.81
2023-05-09T23:09:46.889Z,11.72
2023-05-09T23:14:48.309Z,11.65
2023-05-09T23:19:49.925Z,11.61
2023-05-09T23:24:51.336Z,11.52
2023-05-09T23:29:52.782Z,11.54
2023-05-09T23:34:54.188Z,11.35
2023-05-09T23:39:56.173Z,11.46
2023-05-09T23:44:57.630Z,11.35
2023-05-09T23:49:59.129Z,11.25
2023-05-09T23:55:00.602Z,11.10
